Time,TemperatureF,DewpointF,PressureIn,WindDirection,WindDirectionDegrees,WindSpeedMPH,WindSpeedGustMPH,Humidity,HourlyPrecipIn,Conditions,Clouds,dailyrainin,SoftwareType,DateUTC
2013-01-04 00:03:00,20.0,16.0,-100.00,South,170,16.0,19.0,81,0.00,,,0.00,,2013-01-04 00:03:00,
2013-01-04 00:12:00,20.0,16.0,-100.00,SSE,165,16.0,19.0,82,0.00,,,0.00,,2013-01-04 00:12:00,
2013-01-04 00:22:00,20.0,16.0,-100.00,South,170,17.0,20.0,82,0.00,,,0.00,,2013-01-04 00:22:00,
2013-01-04 00:32:00,20.0,16.0,-100.00,South,170,17.0,21.0,82,0.00,,,0.00,,2013-01-04 00:32:00,
2013-01-04 00:42:00,20.0,16.0,-100.00,South,175,17.0,21.0,82,0.00,,,0.00,,2013-01-04 00:42:00,
2013-01-04 00:52:00,20.0,16.0,-100.00,South,175,18.0,21.0,82,0.00,,,0.00,,2013-01-04 00:52:00,
2013-01-04 01:02:00,20.0,16.0,-100.00,South,175,17.0,21.0,82,0.00,,,0.00,,2013-01-04 01:02:00,
2013-01-04 01:12:00,20.0,16.0,-100.00,South,175,17.0,20.0,81,0.00,,,0.00,,2013-01-04 01:12:00,
2013-01-04 01:22:00,20.0,16.0,-100.00,South,175,17.0,21.0,80,0.00,,,0.00,,2013-01-04 01:22:00,
2013-01-04 01:32:00,20.0,16.0,-100.00,South,175,19.0,22.0,80,0.00,,,0.00,,2013-01-04 01:32:00,
2013-01-04 01:42:00,19.0,14.0,-100.00,South,175,16.0,22.0,80,0.00,,,0.00,,2013-01-04 01:42:00,
2013-01-04 01:52:00,19.0,14.0,-100.00,South,180,13.0,19.0,81,0.00,,,0.00,,2013-01-04 01:52:00,
2013-01-04 02:02:00,18.0,14.0,-100.00,South,185,12.0,16.0,81,0.00,,,0.00,,2013-01-04 02:02:00,
2013-01-04 02:12:00,18.0,14.0,-100.00,South,185,12.0,16.0,81,0.00,,,0.00,,2013-01-04 02:12:00,
2013-01-04 02:22:00,18.0,14.0,-100.00,South,185,12.0,16.0,81,0.00,,,0.00,,2013-01-04 02:22:00,
2013-01-04 02:32:00,18.0,14.0,-100.00,South,185,12.0,16.0,81,0.00,,,0.00,,2013-01-04 02:32:00,
2013-01-04 02:42:00,19.0,14.0,-100.00,South,180,17.0,19.0,80,0.00,,,0.00,,2013-01-04 02:42:00,
2013-01-04 02:53:00,19.0,14.0,-100.00,South,180,17.0,19.0,80,0.00,,,0.00,,2013-01-04 02:53:00,
2013-01-04 03:02:00,19.0,14.0,-100.00,South,180,17.0,19.0,80,0.00,,,0.00,,2013-01-04 03:02:00,
2013-01-04 03:12:00,19.0,14.0,-100.00,South,180,17.0,21.0,80,0.00,,,0.00,,2013-01-04 03:12:00,
2013-01-04 03:22:00,19.0,14.0,-100.00,South,185,9.0,13.0,77,0.00,,,0.00,,2013-01-04 03:22:00,
2013-01-04 03:32:00,19.0,14.0,-100.00,South,185,9.0,13.0,77,0.00,,,0.00,,2013-01-04 03:32:00,
2013-01-04 03:43:00,20.0,14.0,-100.00,South,190,11.0,14.0,74,0.00,,,0.00,,2013-01-04 03:43:00,
2013-01-04 03:53:00,20.0,14.0,-100.00,South,190,11.0,14.0,74,0.00,,,0.00,,2013-01-04 03:53:00,
2013-01-04 04:02:00,20.0,12.0,-100.00,South,185,10.0,14.0,72,0.00,,,0.00,,2013-01-04 04:02:00,
2013-01-04 04:12:00,20.0,12.0,-100.00,SSW,200,10.0,11.0,72,0.00,,,0.00,,2013-01-04 04:12:00,
2013-01-04 04:22:00,19.0,12.0,-100.00,SSW,195,7.0,11.0,73,0.00,,,0.00,,2013-01-04 04:22:00,
2013-01-04 04:32:00,19.0,12.0,-100.00,SSW,195,7.0,9.0,73,0.00,,,0.00,,2013-01-04 04:32:00,
2013-01-04 04:42:00,19.0,12.0,-100.00,South,180,7.0,9.0,74,0.00,,,0.00,,2013-01-04 04:42:00,
2013-01-04 04:52:00,19.0,12.0,-100.00,South,190,9.0,9.0,74,0.00,,,0.00,,2013-01-04 04:52:00,
2013-01-04 05:03:00,19.0,12.0,-100.00,SSW,195,7.0,9.0,74,0.00,,,0.00,,2013-01-04 05:03:00,
2013-01-04 05:12:00,19.0,12.0,-100.00,SSW,205,7.0,9.0,74,0.00,,,0.00,,2013-01-04 05:12:00,
2013-01-04 05:22:00,18.0,12.0,-100.00,SSW,210,10.0,11.0,74,0.00,,,0.00,,2013-01-04 05:22:00,
2013-01-04 05:33:00,18.0,10.0,-100.00,SSW,200,9.0,10.0,75,0.00,,,0.00,,2013-01-04 05:33:00,
2013-01-04 05:42:00,17.0,10.0,-100.00,SSW,210,6.0,8.0,75,0.00,,,0.00,,2013-01-04 05:42:00,
2013-01-04 05:52:00,18.0,12.0,-100.00,SW,215,6.0,7.0,76,0.00,,,0.00,,2013-01-04 05:52:00,
2013-01-04 06:02:00,18.0,12.0,-100.00,SSW,210,7.0,7.0,76,0.00,,,0.00,,2013-01-04 06:02:00,
2013-01-04 06:12:00,18.0,12.0,-100.00,SSW,210,7.0,7.0,76,0.00,,,0.00,,2013-01-04 06:12:00,
2013-01-04 06:22:00,18.0,12.0,-100.00,SW,230,7.0,9.0,76,0.00,,,0.00,,2013-01-04 06:22:00,
2013-01-04 06:32:00,18.0,10.0,-100.00,SW,230,7.0,9.0,76,0.00,,,0.00,,2013-01-04 06:32:00,
2013-01-04 06:42:00,17.0,10.0,-100.00,SW,235,7.0,9.0,76,0.00,,,0.00,,2013-01-04 06:42:00,
2013-01-04 06:52:00,19.0,12.0,-100.00,WSW,245,6.0,7.0,76,0.00,,,0.00,,2013-01-04 06:52:00,
2013-01-04 07:02:00,18.0,12.0,-100.00,WSW,245,6.0,7.0,76,0.00,,,0.00,,2013-01-04 07:02:00,
2013-01-04 07:12:00,19.0,12.0,-100.00,WSW,250,7.0,8.0,76,0.00,,,0.00,,2013-01-04 07:12:00,
2013-01-04 07:22:00,19.0,12.0,-100.00,WSW,250,7.0,8.0,76,0.00,,,0.00,,2013-01-04 07:22:00,
2013-01-04 07:32:00,18.0,12.0,-100.00,WSW,240,6.0,8.0,76,0.00,,,0.00,,2013-01-04 07:32:00,
2013-01-04 07:42:00,18.0,12.0,-100.00,SW,235,6.0,7.0,77,0.00,,,0.00,,2013-01-04 07:42:00,
2013-01-04 07:52:00,19.0,12.0,-100.00,SW,235,6.0,7.0,77,0.00,,,0.00,,2013-01-04 07:52:00,
2013-01-04 08:02:00,19.0,14.0,-100.00,SW,230,6.0,7.0,77,0.00,,,0.00,,2013-01-04 08:02:00,
2013-01-04 08:12:00,19.0,12.0,-100.00,SW,225,6.0,6.0,77,0.00,,,0.00,,2013-01-04 08:12:00,
2013-01-04 08:22:00,19.0,12.0,-100.00,SW,220,6.0,7.0,77,0.00,,,0.00,,2013-01-04 08:22:00,
2013-01-04 08:32:00,18.0,12.0,-100.00,SW,220,6.0,6.0,77,0.00,,,0.00,,2013-01-04 08:32:00,
2013-01-04 08:42:00,17.0,12.0,-100.00,SW,230,6.0,7.0,78,0.00,,,0.00,,2013-01-04 08:42:00,
2013-01-04 08:52:00,18.0,12.0,-100.00,SW,230,7.0,9.0,78,0.00,,,0.00,,2013-01-04 08:52:00,
2013-01-04 09:02:00,17.0,12.0,-100.00,WSW,240,8.0,11.0,78,0.00,,,0.00,,2013-01-04 09:02:00,